Time;durP1;ratioP1;P1;durP2;ratioP2;P2;SDS_P1;SDS_P2;PMS_P1;PMS_P2;Temp;Humidity;BMP_temperature;BMP_pressure;BME280_temperature;BME280_humidity;BME280_pressure;Samples;Min_cycle;Max_cycle;Signal;HPM_P1;HPM_P2
2022/10/03 00:01:18;;;;;;;;;9.75;8.25;;;;;13.18;83.50;101820.31;5105380;27;46264;-83
2022/10/03 00:04:12;;;;;;;;;10.25;8.00;;;;;12.85;83.62;101772.00;5108088;27;45322;-83
2022/10/03 00:07:12;;;;;;;;;10.00;8.75;;;;;13.13;84.07;101827.41;5078332;27;45421;-82
2022/10/03 00:10:00;;;;;;;;;9.75;8.25;;;;;13.10;83.79;101825.69;5096740;27;45443;-83
2022/10/03 00:12:38;;;;;;;;;9.00;9.00;;;;;12.67;83.77;101758.94;5095781;27;46585;-80
2022/10/03 00:15:17;;;;;;;;;10.50;8.50;;;;;13.01;83.97;101828.44;5075516;28;45512;-80
2022/10/03 00:17:51;;;;;;;;;9.75;9.75;;;;;13.05;84.37;101845.22;5076472;28;45501;-80
2022/10/03 00:20:48;;;;;;;;;9.50;6.75;;;;;13.04;84.37;101843.44;5091185;27;45522;-82
2022/10/03 00:23:53;;;;;;;;;12.25;6.75;;;;;13.02;83.98;101839.94;5095608;27;46549;-82
2022/10/03 00:26:27;;;;;;;;;7.00;5.00;;;;;13.01;83.73;101838.16;5095585;27;45563;-80
2022/10/03 00:28:53;;;;;;;;;10.00;8.75;;;;;12.98;84.01;101839.97;5112420;27;45533;-82
2022/10/03 00:31:55;;;;;;;;;6.00;5.00;;;;;12.96;84.78;101838.22;5132100;27;45485;-84
2022/10/03 00:34:45;;;;;;;;;6.00;6.00;;;;;12.86;84.62;101820.63;5039349;28;45421;-84
2022/10/03 00:37:34;;;;;;;;;9.00;6.75;;;;;12.88;84.90;101840.94;5013217;28;45486;-83
2022/10/03 00:40:32;;;;;;;;;9.75;9.50;;;;;12.87;84.51;101836.53;5013058;28;45537;-83
2022/10/03 00:43:16;;;;;;;;;6.50;6.50;;;;;12.85;85.02;101838.31;5011200;28;45452;-83
2022/10/03 00:46:15;;;;;;;;;9.75;9.75;;;;;12.79;84.54;101841.03;5028632;28;45574;-82
2022/10/03 00:49:05;;;;;;;;;10.75;9.00;;;;;12.80;84.81;101840.16;5032079;28;45393;-81
2022/10/03 00:51:33;;;;;;;;;6.75;6.00;;;;;12.76;84.99;101841.06;4996884;28;45567;-79
2022/10/03 00:54:27;;;;;;;;;10.50;10.50;;;;;12.71;85.63;101851.72;5012392;28;45337;-80
2022/10/03 00:57:18;;;;;;;;;13.50;12.75;;;;;12.67;85.48;101844.66;4972278;28;46834;-79
2022/10/03 01:00:23;;;;;;;;;11.75;9.75;;;;;12.56;86.03;101826.19;4956324;28;45358;-81
2022/10/03 01:03:23;;;;;;;;;11.50;11.00;;;;;12.62;85.66;101844.72;4955938;28;45526;-79
2022/10/03 01:06:00;;;;;;;;;3.50;3.50;;;;;12.53;86.12;101830.66;4953162;28;45562;-80
2022/10/03 01:08:49;;;;;;;;;7.00;6.00;;;;;12.57;85.72;101843.88;4954338;28;45628;-79
2022/10/03 01:11:23;;;;;;;;;11.00;7.50;;;;;12.54;85.98;101843.91;4962327;28;45363;-80
2022/10/03 01:14:03;;;;;;;;;10.25;10.25;;;;;12.52;85.79;101850.97;5000007;28;45545;-79
2022/10/03 01:16:43;;;;;;;;;3.00;3.00;;;;;12.51;86.09;101837.72;5011107;28;46772;-80
2022/10/03 01:19:46;;;;;;;;;11.25;9.75;;;;;12.48;86.49;101841.31;5011838;28;46163;-80
2022/10/03 01:22:57;;;;;;;;;6.25;6.25;;;;;12.48;86.55;101840.41;5011634;28;45503;-80
2022/10/03 01:25:37;;;;;;;;;7.75;6.25;;;;;12.44;86.61;101844.88;5010969;28;45542;-80
2022/10/03 01:31:09;;;;;;;;;10.00;7.50;;;;;12.41;86.68;101836.94;5015060;28;45808;-79
2022/10/03 01:33:53;;;;;;;;;8.00;6.25;;;;;12.45;86.69;101836.03;5042862;28;45442;-80
2022/10/03 01:36:52;;;;;;;;;9.50;7.25;;;;;12.43;86.38;101843.09;5077120;27;45316;-79
2022/10/03 01:39:29;;;;;;;;;7.50;7.00;;;;;12.33;87.27;101825.50;5079675;27;45560;-80
2022/10/03 01:42:29;;;;;;;;;11.25;7.25;;;;;12.42;86.87;101844.88;5101544;27;46462;-80
2022/10/03 01:45:14;;;;;;;;;7.50;7.00;;;;;12.29;87.40;101818.47;5101617;27;45515;-80
2022/10/03 01:47:56;;;;;;;;;10.75;7.50;;;;;11.89;87.61;101748.06;5100003;27;45740;-80
2022/10/03 01:50:47;;;;;;;;;7.50;7.50;;;;;12.40;87.52;101840.47;5097079;27;45472;-79
2022/10/03 01:53:31;;;;;;;;;12.75;9.50;;;;;12.21;87.45;101800.84;5098254;27;45413;-79
2022/10/03 01:56:20;;;;;;;;;10.25;9.50;;;;;12.39;87.04;101828.09;5079719;27;45563;-80
2022/10/03 01:58:51;;;;;;;;;12.25;9.00;;;;;12.39;87.38;101822.78;5098530;27;45424;-80
2022/10/03 02:01:29;;;;;;;;;7.00;7.00;;;;;12.25;87.59;101810.56;5114477;27;45487;-81
2022/10/03 02:04:11;;;;;;;;;12.50;9.75;;;;;12.35;88.13;101821.06;5097867;27;45439;-79
2022/10/03 02:06:49;;;;;;;;;9.00;9.00;;;;;12.34;88.07;101821.97;5097100;27;45354;-79
2022/10/03 02:09:27;;;;;;;;;7.00;6.00;;;;;12.27;87.77;101811.41;5097710;27;45508;-79
2022/10/03 02:12:33;;;;;;;;;7.00;3.00;;;;;12.29;88.08;101823.78;5097102;27;45323;-79
2022/10/03 02:15:30;;;;;;;;;7.00;7.00;;;;;12.33;87.52;101822.84;5073939;27;46577;-80
2022/10/03 02:18:07;;;;;;;;;9.25;6.00;;;;;12.09;88.23;101791.22;5095948;27;45438;-80
2022/10/03 02:20:50;;;;;;;;;10.00;6.25;;;;;11.71;87.71;101725.22;5097315;27;45498;-79
2022/10/03 02:23:30;;;;;;;;;6.50;6.50;;;;;12.30;87.89;101822.88;5098528;27;45303;-80
2022/10/03 02:26:17;;;;;;;;;8.75;6.75;;;;;12.07;88.33;101794.75;5099715;27;46403;-79
2022/10/03 02:28:48;;;;;;;;;7.50;7.50;;;;;12.26;87.91;101827.31;5112508;27;45445;-79
2022/10/03 02:31:35;;;;;;;;;8.25;5.00;;;;;12.22;88.37;101814.97;5104956;27;45467;-80
2022/10/03 02:34:23;;;;;;;;;11.00;8.25;;;;;12.24;88.05;101823.81;5099594;27;45520;-80
2022/10/03 02:36:58;;;;;;;;;8.25;6.00;;;;;12.24;88.20;101826.47;5103258;27;45416;-80
2022/10/03 02:39:56;;;;;;;;;8.50;7.25;;;;;12.24;88.64;101827.34;5105219;27;44867;-79
2022/10/03 02:42:39;;;;;;;;;7.00;6.00;;;;;12.23;88.15;101822.03;5075877;27;45540;-80
2022/10/03 02:45:11;;;;;;;;;8.50;8.50;;;;;12.23;88.58;101830.88;5098100;27;45374;-80
2022/10/03 02:48:06;;;;;;;;;10.25;7.00;;;;;12.01;88.63;101787.75;5104685;27;46688;-79
2022/10/03 02:50:48;;;;;;;;;9.75;8.75;;;;;12.05;88.52;101804.50;5110709;27;45537;-79
2022/10/03 02:53:25;;;;;;;;;9.00;9.00;;;;;12.19;88.26;101831.81;5080032;27;45531;-82
2022/10/03 02:56:03;;;;;;;;;9.00;5.50;;;;;12.19;88.77;101829.16;5100975;27;45457;-83
2022/10/03 02:58:42;;;;;;;;;13.25;11.75;;;;;11.95;88.65;101784.25;5102077;27;45588;-82
2022/10/03 03:01:16;;;;;;;;;12.50;9.00;;;;;12.17;88.88;101817.66;5101738;27;45540;-82
2022/10/03 03:04:12;;;;;;;;;8.50;6.75;;;;;12.17;88.62;101814.13;5084935;27;45535;-83
2022/10/03 03:06:47;;;;;;;;;13.75;10.00;;;;;12.16;89.01;101821.22;5112101;27;45585;-82
2022/10/03 03:09:29;;;;;;;;;13.75;7.50;;;;;12.17;89.40;101828.25;5119535;27;46462;-82
2022/10/03 03:12:01;;;;;;;;;12.75;7.50;;;;;12.17;89.03;101822.09;5079555;27;45415;-83
2022/10/03 03:14:51;;;;;;;;;8.25;8.25;;;;;12.18;89.79;101822.06;5099353;27;45424;-83
2022/10/03 03:17:32;;;;;;;;;13.50;9.50;;;;;12.13;89.49;101820.34;5098507;27;45292;-82
2022/10/03 03:20:18;;;;;;;;;10.50;8.50;;;;;12.20;89.71;101830.00;5096423;27;45443;-82
2022/10/03 03:22:58;;;;;;;;;10.50;9.50;;;;;12.21;90.00;101829.13;5105933;27;45513;-82
2022/10/03 03:25:43;;;;;;;;;11.25;11.25;;;;;12.17;89.98;101812.34;5099696;27;44920;-82
2022/10/03 03:28:11;;;;;;;;;9.75;9.25;;;;;12.22;90.19;101826.47;5100329;27;45467;-83
2022/10/03 03:30:51;;;;;;;;;14.25;10.50;;;;;12.23;89.95;101824.69;5102593;27;46388;-82
2022/10/03 03:33:28;;;;;;;;;14.50;13.25;;;;;12.24;90.50;101827.34;5091389;27;45402;-83
2022/10/03 03:36:11;;;;;;;;;14.25;12.75;;;;;12.25;90.27;101821.16;5076543;27;45495;-83
2022/10/03 03:38:48;;;;;;;;;14.50;10.75;;;;;12.25;90.60;101820.25;5076925;28;45256;-83
2022/10/03 03:41:32;;;;;;;;;7.00;6.00;;;;;12.23;90.08;101822.91;5076186;28;46520;-82
2022/10/03 03:44:13;;;;;;;;;14.00;11.25;;;;;12.22;90.03;101817.63;5093434;27;45553;-82
2022/10/03 03:46:57;;;;;;;;;11.50;11.00;;;;;12.21;90.42;101819.41;5097150;27;45402;-82
2022/10/03 03:49:42;;;;;;;;;13.25;13.25;;;;;12.24;90.07;101822.03;5096470;27;45422;-83
2022/10/03 03:52:43;;;;;;;;;11.75;11.75;;;;;11.90;90.17;101771.00;5078437;27;47371;-83
2022/10/03 03:55:45;;;;;;;;;15.25;10.50;;;;;12.10;90.94;101800.06;5095584;27;45737;-82
2022/10/03 03:58:37;;;;;;;;;12.50;11.75;;;;;12.15;90.65;101811.50;5097245;27;45263;-82
2022/10/03 04:01:30;;;;;;;;;13.25;13.00;;;;;11.98;90.97;101792.16;5103721;27;45414;-83
2022/10/03 04:04:21;;;;;;;;;15.00;11.75;;;;;12.02;91.32;101801.88;5094333;27;46629;-82
2022/10/03 04:06:59;;;;;;;;;17.50;13.00;;;;;12.11;90.90;101828.31;5067177;27;45293;-82
2022/10/03 04:09:58;;;;;;;;;18.25;15.25;;;;;12.12;91.26;101832.72;5078775;27;45341;-83
2022/10/03 04:12:48;;;;;;;;;16.00;16.00;;;;;12.09;91.59;101825.66;5096662;27;45568;-82
2022/10/03 04:15:16;;;;;;;;;15.00;14.75;;;;;12.07;91.19;101827.44;5096428;27;45603;-83
2022/10/03 04:21:28;;;;;;;;;17.25;15.25;;;;;11.96;91.49;101829.28;5100229;27;45478;-80
2022/10/03 04:24:30;;;;;;;;;18.50;15.75;;;;;11.88;92.18;101831.06;5085145;27;45643;-80
2022/10/03 04:27:03;;;;;;;;;17.25;13.00;;;;;11.77;92.43;101828.47;5097737;27;45460;-79
2022/10/03 04:29:50;;;;;;;;;18.25;17.25;;;;;11.73;92.55;101832.88;5078744;28;45435;-80
2022/10/03 04:32:34;;;;;;;;;22.00;19.25;;;;;11.69;92.82;101835.56;5078652;28;45418;-80
2022/10/03 04:35:34;;;;;;;;;16.00;14.25;;;;;11.64;93.15;101837.34;5086139;27;45624;-81
2022/10/03 04:38:14;;;;;;;;;19.50;15.00;;;;;11.56;93.34;101830.31;4992382;28;46357;-80
2022/10/03 04:41:01;;;;;;;;;18.75;13.00;;;;;11.22;93.07;101791.63;4993437;28;45350;-80
2022/10/03 04:43:33;;;;;;;;;6.75;5.00;;;;;11.47;93.40;101830.34;5002350;28;45432;-81
